createdAt,value
2018-03-22T00:00:29.852Z,812.61
2018-03-22T00:01:29.865Z,812.61
2018-03-22T00:02:29.853Z,812.59
2018-03-22T00:03:29.854Z,812.61
2018-03-22T00:04:29.854Z,812.59
2018-03-22T00:05:29.855Z,812.58
2018-03-22T00:06:29.854Z,812.60
2018-03-22T00:07:29.854Z,812.59
2018-03-22T00:08:29.860Z,812.55
2018-03-22T00:09:29.859Z,812.59
2018-03-22T00:10:29.855Z,812.58
2018-03-22T00:11:29.860Z,812.59
2018-03-22T00:12:29.859Z,812.61
2018-03-22T00:13:29.855Z,812.56
2018-03-22T00:14:29.861Z,812.60
2018-03-22T00:15:29.855Z,812.60
2018-03-22T00:16:29.856Z,812.56
2018-03-22T00:17:29.862Z,812.60
2018-03-22T00:18:29.862Z,812.58
2018-03-22T00:19:29.861Z,812.57
2018-03-22T00:20:29.856Z,812.59
2018-03-22T00:21:29.860Z,812.55
2018-03-22T00:22:29.862Z,812.57
2018-03-22T00:23:29.856Z,812.57
2018-03-22T00:24:29.857Z,812.59
2018-03-22T00:25:29.859Z,812.51
2018-03-22T00:26:29.862Z,812.51
2018-03-22T00:27:29.862Z,812.49
2018-03-22T00:28:29.862Z,812.49
2018-03-22T00:29:29.863Z,812.46
2018-03-22T00:30:29.858Z,812.48
2018-03-22T00:31:29.866Z,812.46
2018-03-22T00:32:29.866Z,812.48
2018-03-22T00:33:29.857Z,812.48
2018-03-22T00:34:29.863Z,812.50
2018-03-22T00:35:29.858Z,812.47
2018-03-22T00:36:29.855Z,812.45
2018-03-22T00:37:29.862Z,812.43
2018-03-22T00:38:29.864Z,812.41
2018-03-22T00:39:29.861Z,812.43
2018-03-22T00:40:29.856Z,812.38
2018-03-22T00:41:29.856Z,812.37
2018-03-22T00:42:29.856Z,812.34
2018-03-22T00:43:29.855Z,812.39
2018-03-22T00:44:29.864Z,812.35
2018-03-22T00:45:29.862Z,812.34
2018-03-22T00:46:29.869Z,812.38
2018-03-22T00:47:29.856Z,812.31
2018-03-22T00:48:29.858Z,812.30
2018-03-22T00:49:29.863Z,812.28
2018-03-22T00:50:29.856Z,812.28
2018-03-22T00:51:29.864Z,812.31
2018-03-22T00:52:29.856Z,812.26
2018-03-22T00:53:29.861Z,812.28
2018-03-22T00:54:29.866Z,812.27
2018-03-22T00:55:29.860Z,812.25
2018-03-22T00:56:29.861Z,812.26
2018-03-22T00:57:29.856Z,812.23
2018-03-22T00:58:29.869Z,812.25
2018-03-22T00:59:29.870Z,812.25
2018-03-22T01:00:29.860Z,812.23
2018-03-22T01:01:29.856Z,812.20
2018-03-22T01:02:29.861Z,812.21
2018-03-22T01:03:29.861Z,812.27
2018-03-22T01:04:29.857Z,812.26
2018-03-22T01:05:29.858Z,812.22
2018-03-22T01:06:29.855Z,812.23
2018-03-22T01:07:29.859Z,812.23
2018-03-22T01:08:29.860Z,812.21
2018-03-22T01:09:29.856Z,812.18
2018-03-22T01:10:29.861Z,812.23
2018-03-22T01:11:29.859Z,812.22
2018-03-22T01:12:29.854Z,812.16
2018-03-22T01:13:29.869Z,812.17
2018-03-22T01:14:29.860Z,812.10
2018-03-22T01:15:29.859Z,812.13
2018-03-22T01:16:29.861Z,812.11
2018-03-22T01:17:29.856Z,812.11
2018-03-22T01:18:29.854Z,812.09
2018-03-22T01:19:29.861Z,812.11
2018-03-22T01:20:29.853Z,812.10
2018-03-22T01:21:29.860Z,812.05
2018-03-22T01:22:29.854Z,812.08
2018-03-22T01:23:29.858Z,812.05
2018-03-22T01:24:29.854Z,812.07
2018-03-22T01:25:29.852Z,812.07
2018-03-22T01:26:29.859Z,812.06
2018-03-22T01:27:29.858Z,812.05
2018-03-22T01:28:29.853Z,812.03
2018-03-22T01:29:29.859Z,811.99
2018-03-22T01:30:29.861Z,812.00
2018-03-22T01:31:29.851Z,811.97
2018-03-22T01:32:29.863Z,811.96
2018-03-22T01:33:29.856Z,812.00
2018-03-22T01:34:29.851Z,811.99
2018-03-22T01:35:29.855Z,811.95
2018-03-22T01:36:29.850Z,811.95
2018-03-22T01:37:29.850Z,811.88
2018-03-22T01:38:29.850Z,811.90
2018-03-22T01:39:29.853Z,811.90
2018-03-22T01:40:29.847Z,811.88
2018-03-22T01:41:29.854Z,811.86
2018-03-22T01:42:29.855Z,811.88
2018-03-22T01:43:29.845Z,811.84
2018-03-22T01:44:29.852Z,811.85
2018-03-22T01:45:29.846Z,811.85
2018-03-22T01:46:29.846Z,811.87
2018-03-22T01:47:29.851Z,811.88
2018-03-22T01:48:29.851Z,811.87
2018-03-22T01:49:29.844Z,811.85
2018-03-22T01:50:29.845Z,811.87
2018-03-22T01:51:29.848Z,811.88
2018-03-22T01:52:29.842Z,811.88
2018-03-22T01:53:29.857Z,811.90
2018-03-22T01:54:29.842Z,811.92
2018-03-22T01:55:29.840Z,811.89
2018-03-22T01:56:29.846Z,811.90
2018-03-22T01:57:29.840Z,811.86
2018-03-22T01:58:29.840Z,811.86
2018-03-22T01:59:29.838Z,811.82
2018-03-22T02:00:29.844Z,811.82
2018-03-22T02:01:29.845Z,811.79
2018-03-22T02:02:29.846Z,811.79
2018-03-22T02:03:29.842Z,811.75
2018-03-22T02:04:29.842Z,811.78
2018-03-22T02:05:29.841Z,811.74
2018-03-22T02:06:29.842Z,811.73
2018-03-22T02:07:29.835Z,811.76
2018-03-22T02:08:29.840Z,811.71
2018-03-22T02:09:29.840Z,811.78
2018-03-22T02:10:29.834Z,811.71
2018-03-22T02:11:29.833Z,811.74
2018-03-22T02:12:29.832Z,811.74
2018-03-22T02:13:29.840Z,811.73
2018-03-22T02:14:29.837Z,811.73
2018-03-22T02:15:29.838Z,811.68
2018-03-22T02:16:29.830Z,811.68
2018-03-22T02:17:29.830Z,811.68
2018-03-22T02:18:29.830Z,811.68
2018-03-22T02:19:29.831Z,811.64
2018-03-22T02:20:29.835Z,811.68
2018-03-22T02:21:29.828Z,811.60
2018-03-22T02:22:29.835Z,811.61
2018-03-22T02:23:29.834Z,811.62
2018-03-22T02:24:29.829Z,811.55
2018-03-22T02:25:29.830Z,811.55
2018-03-22T02:26:29.827Z,811.57
2018-03-22T02:27:29.832Z,811.55
2018-03-22T02:28:29.833Z,811.54
2018-03-22T02:29:29.826Z,811.57
2018-03-22T02:30:29.832Z,811.59
2018-03-22T02:31:29.826Z,811.58
2018-03-22T02:32:29.832Z,811.60
2018-03-22T02:33:29.828Z,811.61
2018-03-22T02:34:29.830Z,811.57
2018-03-22T02:35:29.829Z,811.56
2018-03-22T02:36:29.829Z,811.56
2018-03-22T02:37:29.826Z,811.54
2018-03-22T02:38:29.834Z,811.51
2018-03-22T02:39:29.821Z,811.52
2018-03-22T02:40:29.821Z,811.52
2018-03-22T02:41:29.826Z,811.50
2018-03-22T02:42:29.823Z,811.44
2018-03-22T02:43:29.828Z,811.50
2018-03-22T02:44:29.818Z,811.42
2018-03-22T02:45:29.817Z,811.46
2018-03-22T02:46:29.824Z,811.45
2018-03-22T02:47:29.822Z,811.39
2018-03-22T02:48:29.817Z,811.42
2018-03-22T02:49:29.821Z,811.39
2018-03-22T02:50:29.821Z,811.41
2018-03-22T02:51:29.821Z,811.38
2018-03-22T02:52:29.821Z,811.34
2018-03-22T02:53:29.819Z,811.31
2018-03-22T02:54:29.814Z,811.29
2018-03-22T02:55:29.815Z,811.34
2018-03-22T02:56:29.812Z,811.31
2018-03-22T02:57:29.818Z,811.30
2018-03-22T02:58:29.817Z,811.27
2018-03-22T02:59:29.820Z,811.20
2018-03-22T03:00:29.872Z,811.23
2018-03-22T03:01:29.813Z,811.22
2018-03-22T03:02:29.887Z,811.25
2018-03-22T03:03:29.809Z,811.24
2018-03-22T03:04:29.810Z,811.22
2018-03-22T03:05:29.811Z,811.22
2018-03-22T03:06:29.815Z,811.23
2018-03-22T03:07:29.811Z,811.22
2018-03-22T03:08:29.806Z,811.18
2018-03-22T03:09:29.812Z,811.19
2018-03-22T03:10:29.806Z,811.21
2018-03-22T03:11:29.810Z,811.20
2018-03-22T03:12:29.810Z,811.20
2018-03-22T03:13:29.813Z,811.16
2018-03-22T03:14:29.813Z,811.19
2018-03-22T03:15:29.801Z,811.20
2018-03-22T03:16:29.807Z,811.17
2018-03-22T03:17:29.808Z,811.17
2018-03-22T03:18:29.802Z,811.17
2018-03-22T03:19:29.800Z,811.11
2018-03-22T03:20:29.803Z,811.12
2018-03-22T03:21:29.798Z,811.09
2018-03-22T03:22:29.800Z,811.11
2018-03-22T03:23:29.798Z,811.12
2018-03-22T03:24:29.804Z,811.08
2018-03-22T03:25:29.796Z,811.13
2018-03-22T03:26:29.797Z,811.13
2018-03-22T03:27:29.796Z,811.07
2018-03-22T03:28:29.794Z,811.10
2018-03-22T03:29:29.794Z,811.09
2018-03-22T03:30:29.823Z,811.11
2018-03-22T03:31:29.801Z,811.10
2018-03-22T03:32:29.792Z,811.07
2018-03-22T03:33:29.792Z,811.09
2018-03-22T03:34:29.801Z,811.13
2018-03-22T03:35:29.791Z,811.10
2018-03-22T03:36:29.795Z,811.08
2018-03-22T03:37:29.791Z,811.06
2018-03-22T03:38:29.787Z,811.07
2018-03-22T03:39:29.791Z,811.02
2018-03-22T03:40:29.788Z,811.07
2018-03-22T03:41:29.830Z,811.09
2018-03-22T03:42:29.786Z,811.08
2018-03-22T03:43:29.789Z,811.09
2018-03-22T03:44:29.782Z,811.10
2018-03-22T03:45:29.788Z,811.05
2018-03-22T03:46:29.783Z,811.02
2018-03-22T03:47:29.782Z,811.02
2018-03-22T03:48:29.786Z,811.02
2018-03-22T03:49:29.786Z,811.04
2018-03-22T03:50:29.780Z,811.00
2018-03-22T03:51:29.778Z,811.04
2018-03-22T03:52:29.777Z,811.04
2018-03-22T03:53:29.776Z,811.00
2018-03-22T03:54:29.784Z,811.00
2018-03-22T03:55:29.774Z,811.01
2018-03-22T03:56:29.774Z,810.99
2018-03-22T03:57:29.776Z,811.00
2018-03-22T03:58:29.774Z,811.04
2018-03-22T03:59:29.778Z,811.05
2018-03-22T04:00:29.776Z,810.98
2018-03-22T04:01:29.779Z,810.99
2018-03-22T04:02:29.776Z,810.94
2018-03-22T04:03:29.976Z,810.94
2018-03-22T04:04:29.774Z,810.99
2018-03-22T04:05:29.782Z,811.00
2018-03-22T04:06:29.772Z,810.98
2018-03-22T04:07:29.766Z,810.97
2018-03-22T04:08:29.773Z,810.96
2018-03-22T04:09:29.765Z,810.93
2018-03-22T04:10:29.764Z,810.93
2018-03-22T04:11:29.770Z,810.91
2018-03-22T04:12:29.764Z,810.93
2018-03-22T04:13:29.762Z,810.91
2018-03-22T04:14:29.768Z,810.87
2018-03-22T04:15:29.766Z,810.84
2018-03-22T04:16:29.766Z,810.88
2018-03-22T04:17:29.765Z,810.85
2018-03-22T04:18:29.760Z,810.86
2018-03-22T04:19:29.759Z,810.88
2018-03-22T04:20:29.761Z,810.89
2018-03-22T04:21:29.763Z,810.91
2018-03-22T04:22:29.758Z,810.90
2018-03-22T04:23:29.763Z,810.94
2018-03-22T04:24:29.756Z,810.95
2018-03-22T04:25:29.755Z,810.94
2018-03-22T04:26:29.758Z,810.94
2018-03-22T04:27:29.753Z,810.92
2018-03-22T04:28:29.759Z,810.91
2018-03-22T04:29:29.760Z,810.92
2018-03-22T04:30:29.752Z,810.93
2018-03-22T04:31:29.752Z,810.88
2018-03-22T04:32:29.763Z,810.87
2018-03-22T04:33:29.750Z,810.89
2018-03-22T04:34:29.810Z,810.88
2018-03-22T04:35:29.749Z,810.86
2018-03-22T04:36:29.754Z,810.86
2018-03-22T04:37:29.753Z,810.85
2018-03-22T04:38:29.753Z,810.82
2018-03-22T04:39:29.751Z,810.81
2018-03-22T04:40:29.754Z,810.82
2018-03-22T04:41:29.744Z,810.80
2018-03-22T04:42:29.753Z,810.81
2018-03-22T04:43:29.743Z,810.80
2018-03-22T04:44:29.748Z,810.80
2018-03-22T04:45:29.742Z,810.81
2018-03-22T04:46:29.749Z,810.79
2018-03-22T04:47:29.747Z,810.78
2018-03-22T04:48:29.751Z,810.76
2018-03-22T04:49:29.739Z,810.75
2018-03-22T04:50:29.745Z,810.76
2018-03-22T04:51:29.738Z,810.76
2018-03-22T04:52:29.742Z,810.73
2018-03-22T04:53:29.742Z,810.73
2018-03-22T04:54:29.736Z,810.74
2018-03-22T04:55:29.753Z,810.72
2018-03-22T04:56:29.735Z,810.73
2018-03-22T04:57:29.742Z,810.71
2018-03-22T04:58:29.741Z,810.77
2018-03-22T04:59:29.738Z,810.76
2018-03-22T05:00:29.733Z,810.76
2018-03-22T05:01:29.733Z,810.75
2018-03-22T05:02:29.737Z,810.74
2018-03-22T05:03:29.731Z,810.75
2018-03-22T05:04:29.738Z,810.74
2018-03-22T05:05:29.734Z,810.73
2018-03-22T05:06:29.734Z,810.76
2018-03-22T05:07:29.738Z,810.76
2018-03-22T05:08:29.725Z,810.75
2018-03-22T05:09:29.729Z,810.75
2018-03-22T05:10:29.724Z,810.75
2018-03-22T05:11:29.722Z,810.77
2018-03-22T05:12:29.738Z,810.75
2018-03-22T05:13:29.728Z,810.72
2018-03-22T05:14:29.722Z,810.77
2018-03-22T05:15:29.728Z,810.75
2018-03-22T05:16:29.722Z,810.80
2018-03-22T05:17:29.718Z,810.79
2018-03-22T05:18:29.728Z,810.77
2018-03-22T05:19:29.718Z,810.74
2018-03-22T05:20:29.716Z,810.74
2018-03-22T05:21:29.716Z,810.74
2018-03-22T05:22:29.720Z,810.71
2018-03-22T05:23:29.713Z,810.72
2018-03-22T05:24:29.713Z,810.70
2018-03-22T05:25:29.713Z,810.72
2018-03-22T05:26:29.718Z,810.73
2018-03-22T05:27:29.716Z,810.76
2018-03-22T05:28:29.716Z,810.76
2018-03-22T05:29:29.715Z,810.76
2018-03-22T05:30:29.716Z,810.75
2018-03-22T05:31:29.709Z,810.76
2018-03-22T05:32:29.714Z,810.79
2018-03-22T05:33:29.710Z,810.78
2018-03-22T05:34:29.711Z,810.74
2018-03-22T05:35:29.708Z,810.79
2018-03-22T05:36:29.711Z,810.79
2018-03-22T05:37:29.710Z,810.70
2018-03-22T05:38:29.703Z,810.75
2018-03-22T05:39:29.701Z,810.75
2018-03-22T05:40:29.701Z,810.74
2018-03-22T05:41:29.706Z,810.73
2018-03-22T05:42:29.707Z,810.76
2018-03-22T05:43:29.704Z,810.74
2018-03-22T05:44:29.697Z,810.74
2018-03-22T05:45:29.704Z,810.72
2018-03-22T05:46:29.697Z,810.72
2018-03-22T05:47:29.695Z,810.69
2018-03-22T05:48:29.702Z,810.69
2018-03-22T05:49:29.695Z,810.64
2018-03-22T05:50:29.699Z,810.66
2018-03-22T05:51:29.699Z,810.67
2018-03-22T05:52:29.702Z,810.62
2018-03-22T05:53:29.697Z,810.68
2018-03-22T05:54:29.692Z,810.66
2018-03-22T05:55:29.695Z,810.66
2018-03-22T05:56:29.690Z,810.62
2018-03-22T05:57:29.692Z,810.65
2018-03-22T05:58:29.694Z,810.64
2018-03-22T05:59:29.687Z,810.65
2018-03-22T06:00:29.692Z,810.60
2018-03-22T06:01:29.685Z,810.65
2018-03-22T06:02:29.689Z,810.63
2018-03-22T06:03:29.686Z,810.62
2018-03-22T06:04:29.687Z,810.65
2018-03-22T06:05:29.690Z,810.61
2018-03-22T06:06:29.691Z,810.62
2018-03-22T06:07:29.680Z,810.63
2018-03-22T06:08:29.680Z,810.63
2018-03-22T06:09:29.678Z,810.60
2018-03-22T06:10:29.683Z,810.60
2018-03-22T06:11:29.681Z,810.56
2018-03-22T06:12:29.678Z,810.57
2018-03-22T06:13:29.681Z,810.58
2018-03-22T06:14:29.674Z,810.57
2018-03-22T06:15:29.680Z,810.56
2018-03-22T06:16:29.677Z,810.59
2018-03-22T06:17:29.716Z,810.57
2018-03-22T06:18:29.677Z,810.56
2018-03-22T06:19:29.674Z,810.54
2018-03-22T06:20:29.669Z,810.55
2018-03-22T06:21:29.671Z,810.58
2018-03-22T06:22:29.669Z,810.56
2018-03-22T06:23:29.668Z,810.54
2018-03-22T06:24:29.665Z,810.56
2018-03-22T06:25:29.665Z,810.58
2018-03-22T06:26:29.673Z,810.56
2018-03-22T06:27:29.669Z,810.63
2018-03-22T06:28:29.664Z,810.60
2018-03-22T06:29:29.667Z,810.63
2018-03-22T06:30:29.663Z,810.64
2018-03-22T06:31:29.669Z,810.62
2018-03-22T06:32:29.662Z,810.62
2018-03-22T06:33:29.661Z,810.61
2018-03-22T06:34:29.664Z,810.61
2018-03-22T06:35:29.656Z,810.64
2018-03-22T06:36:29.658Z,810.67
2018-03-22T06:37:29.657Z,810.64
2018-03-22T06:38:29.655Z,810.68
2018-03-22T06:39:29.661Z,810.66
2018-03-22T06:40:29.658Z,810.69
2018-03-22T06:41:29.660Z,810.70
2018-03-22T06:42:29.658Z,810.69
2018-03-22T06:43:29.658Z,810.66
2018-03-22T06:44:29.652Z,810.66
2018-03-22T06:45:29.652Z,810.68
2018-03-22T06:46:29.660Z,810.67
2018-03-22T06:47:29.651Z,810.71
2018-03-22T06:48:29.648Z,810.64
2018-03-22T06:49:29.649Z,810.64
2018-03-22T06:50:29.647Z,810.64
2018-03-22T06:51:29.647Z,810.64
2018-03-22T06:52:29.659Z,810.66
2018-03-22T06:53:29.649Z,810.67
2018-03-22T06:54:29.645Z,810.65
2018-03-22T06:55:29.650Z,810.68
2018-03-22T06:56:29.650Z,810.67
2018-03-22T06:57:29.643Z,810.71
2018-03-22T06:58:29.648Z,810.69
2018-03-22T06:59:29.647Z,810.71
2018-03-22T07:00:29.641Z,810.70
2018-03-22T07:01:29.650Z,810.70
2018-03-22T07:02:29.650Z,810.72
2018-03-22T07:03:29.644Z,810.73
2018-03-22T07:04:29.644Z,810.73
2018-03-22T07:05:29.638Z,810.72
2018-03-22T07:06:29.645Z,810.78
2018-03-22T07:07:29.636Z,810.78
2018-03-22T07:08:29.643Z,810.79
2018-03-22T07:09:29.643Z,810.84
2018-03-22T07:10:29.636Z,810.82
2018-03-22T07:11:29.633Z,810.83
2018-03-22T07:12:29.634Z,810.83
2018-03-22T07:13:29.640Z,810.82
2018-03-22T07:14:29.639Z,810.78
2018-03-22T07:15:29.634Z,810.77
2018-03-22T07:16:29.639Z,810.78
2018-03-22T07:17:29.641Z,810.79
2018-03-22T07:18:29.638Z,810.78
2018-03-22T07:19:29.635Z,810.78
2018-03-22T07:20:29.637Z,810.77
2018-03-22T07:21:29.641Z,810.77
2018-03-22T07:22:29.638Z,810.76
2018-03-22T07:23:29.630Z,810.78
2018-03-22T07:24:29.637Z,810.77
2018-03-22T07:25:29.681Z,810.79
2018-03-22T07:26:29.636Z,810.75
2018-03-22T07:27:29.631Z,810.78
2018-03-22T07:28:29.631Z,810.75
2018-03-22T07:29:29.637Z,810.78
2018-03-22T07:30:29.641Z,810.77
2018-03-22T07:31:29.639Z,810.81
2018-03-22T07:32:29.636Z,810.76
2018-03-22T07:33:29.636Z,810.80
2018-03-22T07:34:29.633Z,810.78
2018-03-22T07:35:29.631Z,810.78
2018-03-22T07:36:29.633Z,810.77
2018-03-22T07:37:29.637Z,810.77
2018-03-22T07:38:29.638Z,810.74
2018-03-22T07:39:29.641Z,810.75
2018-03-22T07:40:29.635Z,810.74
2018-03-22T07:41:29.637Z,810.78
2018-03-22T07:42:29.632Z,810.75
2018-03-22T07:43:29.638Z,810.77
2018-03-22T07:44:29.638Z,810.72
2018-03-22T07:45:29.635Z,810.77
2018-03-22T07:46:29.640Z,810.74
2018-03-22T07:47:29.639Z,810.72
2018-03-22T07:48:29.640Z,810.77
2018-03-22T07:49:29.635Z,810.76
2018-03-22T07:50:29.640Z,810.80
2018-03-22T07:51:29.637Z,810.80
2018-03-22T07:52:29.635Z,810.77
2018-03-22T07:53:29.636Z,810.77
2018-03-22T07:54:29.638Z,810.76
2018-03-22T07:55:29.639Z,810.79
2018-03-22T07:56:29.637Z,810.80
2018-03-22T07:57:29.638Z,810.83
2018-03-22T07:58:29.646Z,810.77
2018-03-22T07:59:29.646Z,810.79
2018-03-22T08:00:29.647Z,810.82
2018-03-22T08:01:29.644Z,810.81
2018-03-22T08:02:29.648Z,810.81
2018-03-22T08:03:29.642Z,810.83
2018-03-22T08:04:29.659Z,810.87
2018-03-22T08:05:29.644Z,810.89
2018-03-22T08:06:29.646Z,810.86
2018-03-22T08:07:29.651Z,810.85
2018-03-22T08:08:29.654Z,810.88
2018-03-22T08:09:29.650Z,810.87
2018-03-22T08:10:29.650Z,810.83
2018-03-22T08:11:29.656Z,810.84
2018-03-22T08:12:29.665Z,810.84
2018-03-22T08:13:29.657Z,810.82
2018-03-22T08:14:29.659Z,810.80
2018-03-22T08:15:29.655Z,810.81
2018-03-22T08:16:29.654Z,810.79
2018-03-22T08:17:29.655Z,810.79
2018-03-22T08:18:29.664Z,810.79
2018-03-22T08:19:29.662Z,810.81
2018-03-22T08:20:29.666Z,810.75
2018-03-22T08:21:29.661Z,810.80
2018-03-22T08:22:29.667Z,810.81
2018-03-22T08:23:29.663Z,810.80
2018-03-22T08:24:29.666Z,810.80
2018-03-22T08:25:29.672Z,810.79
2018-03-22T08:26:29.666Z,810.73
2018-03-22T08:27:29.677Z,810.74
2018-03-22T08:28:29.674Z,810.74
2018-03-22T08:29:29.676Z,810.76
2018-03-22T08:30:29.680Z,810.78
2018-03-22T08:31:29.732Z,810.77
2018-03-22T08:32:29.676Z,810.77
2018-03-22T08:33:29.679Z,810.74
2018-03-22T08:34:29.684Z,810.71
2018-03-22T08:35:29.686Z,810.72
2018-03-22T08:36:29.681Z,810.73
2018-03-22T08:37:29.688Z,810.71
2018-03-22T08:38:29.691Z,810.73
2018-03-22T08:39:29.691Z,810.74
2018-03-22T08:40:29.688Z,810.74
2018-03-22T08:41:29.695Z,810.70
2018-03-22T08:42:29.698Z,810.71
2018-03-22T08:43:29.694Z,810.67
2018-03-22T08:44:29.702Z,810.67
2018-03-22T08:45:29.704Z,810.65
2018-03-22T08:46:29.709Z,810.67
2018-03-22T08:47:29.702Z,810.69
2018-03-22T08:48:29.705Z,810.62
2018-03-22T08:49:29.706Z,810.58
2018-03-22T08:50:29.707Z,810.60
2018-03-22T08:51:29.716Z,810.61
2018-03-22T08:52:29.709Z,810.61
2018-03-22T08:53:29.719Z,810.62
2018-03-22T08:54:29.715Z,810.62
2018-03-22T08:55:29.723Z,810.62
2018-03-22T08:56:29.725Z,810.65
2018-03-22T08:57:29.723Z,810.60
2018-03-22T08:58:29.729Z,810.62
2018-03-22T08:59:29.730Z,810.62
2018-03-22T09:00:29.732Z,810.63
2018-03-22T09:01:29.741Z,810.64
2018-03-22T09:02:29.738Z,810.66
2018-03-22T09:03:29.737Z,810.67
2018-03-22T09:04:29.736Z,810.70
2018-03-22T09:05:29.746Z,810.71
2018-03-22T09:06:29.747Z,810.67
2018-03-22T09:07:29.743Z,810.71
2018-03-22T09:08:29.752Z,810.68
2018-03-22T09:09:29.755Z,810.69
2018-03-22T09:10:29.758Z,810.72
2018-03-22T09:11:29.762Z,810.75
2018-03-22T09:12:29.761Z,810.74
2018-03-22T09:13:29.760Z,810.75
2018-03-22T09:14:29.762Z,810.73
2018-03-22T09:15:29.768Z,810.76
2018-03-22T09:16:29.772Z,810.73
2018-03-22T09:17:29.769Z,810.72
2018-03-22T09:18:29.777Z,810.69
2018-03-22T09:19:29.785Z,810.73
2018-03-22T09:20:29.781Z,810.78
2018-03-22T09:21:29.781Z,810.76
2018-03-22T09:22:29.813Z,810.77
2018-03-22T09:23:29.793Z,810.78
2018-03-22T09:24:29.794Z,810.76
2018-03-22T09:25:29.793Z,810.81
2018-03-22T09:26:29.806Z,810.81
2018-03-22T09:27:29.799Z,810.82
2018-03-22T09:28:29.802Z,810.84
2018-03-22T09:29:29.808Z,810.83
2018-03-22T09:30:29.809Z,810.79
2018-03-22T09:31:29.818Z,810.81
2018-03-22T09:32:29.821Z,810.80
2018-03-22T09:33:29.823Z,810.78
2018-03-22T09:34:29.824Z,810.80
2018-03-22T09:35:29.830Z,810.76
2018-03-22T09:36:29.837Z,810.79
2018-03-22T09:37:29.834Z,810.85
2018-03-22T09:38:29.879Z,810.81
2018-03-22T09:39:29.846Z,810.84
2018-03-22T09:40:29.850Z,810.86
2018-03-22T09:41:29.856Z,810.82
2018-03-22T09:42:29.861Z,810.84
2018-03-22T09:43:29.861Z,810.84
2018-03-22T09:44:29.862Z,810.86
2018-03-22T09:45:29.871Z,810.83
2018-03-22T09:46:29.876Z,810.85
2018-03-22T09:47:29.873Z,810.83
2018-03-22T09:48:29.878Z,810.82
2018-03-22T09:49:29.882Z,810.82
2018-03-22T09:50:29.889Z,810.85
2018-03-22T09:51:29.892Z,810.83
2018-03-22T09:52:29.896Z,810.90
2018-03-22T09:53:29.904Z,810.87
2018-03-22T09:54:29.905Z,810.92
2018-03-22T09:55:29.914Z,810.87
2018-03-22T09:56:29.918Z,810.91
2018-03-22T09:57:29.919Z,810.89
2018-03-22T09:58:29.930Z,810.87
2018-03-22T09:59:29.928Z,810.80
2018-03-22T10:00:29.933Z,810.84
2018-03-22T10:01:29.940Z,810.83
2018-03-22T10:02:29.948Z,810.82
2018-03-22T10:03:29.952Z,810.81
2018-03-22T10:04:29.956Z,810.81
2018-03-22T10:05:29.958Z,810.74
2018-03-22T10:06:29.967Z,810.74
2018-03-22T10:07:29.972Z,810.70
2018-03-22T10:08:29.997Z,810.73
2018-03-22T10:09:29.978Z,810.75
2018-03-22T10:10:29.989Z,810.71
2018-03-22T10:11:29.991Z,810.73
2018-03-22T10:12:29.994Z,810.67
2018-03-22T10:13:29.999Z,810.68
2018-03-22T10:14:30.006Z,810.68
2018-03-22T10:15:30.027Z,810.68
2018-03-22T10:16:30.020Z,810.69
2018-03-22T10:17:30.034Z,810.67
2018-03-22T10:18:30.029Z,810.69
2018-03-22T10:19:30.033Z,810.67
2018-03-22T10:20:30.038Z,810.66
2018-03-22T10:21:30.044Z,810.64
2018-03-22T10:22:30.053Z,810.66
2018-03-22T10:23:30.057Z,810.64
2018-03-22T10:24:30.067Z,810.66
2018-03-22T10:25:30.074Z,810.65
2018-03-22T10:26:30.078Z,810.63
2018-03-22T10:27:30.085Z,810.62
2018-03-22T10:28:30.084Z,810.60
2018-03-22T10:29:30.091Z,810.57
2018-03-22T10:30:30.099Z,810.62
2018-03-22T10:31:30.114Z,810.58
2018-03-22T10:32:30.116Z,810.54
2018-03-22T10:33:30.125Z,810.57
2018-03-22T10:34:30.129Z,810.56
2018-03-22T10:35:30.138Z,810.59
2018-03-22T10:36:30.140Z,810.56
2018-03-22T10:37:30.141Z,810.54
2018-03-22T10:38:30.153Z,810.55
2018-03-22T10:39:30.162Z,810.52
2018-03-22T10:40:30.158Z,810.49
2018-03-22T10:41:30.166Z,810.50
2018-03-22T10:42:30.173Z,810.47
2018-03-22T10:43:30.183Z,810.46
2018-03-22T10:44:30.190Z,810.48
2018-03-22T10:45:30.197Z,810.47
2018-03-22T10:46:30.199Z,810.52
2018-03-22T10:47:30.205Z,810.46
2018-03-22T10:48:30.217Z,810.46
2018-03-22T10:49:30.217Z,810.45
2018-03-22T10:50:30.229Z,810.45
2018-03-22T10:51:30.238Z,810.46
2018-03-22T10:52:30.238Z,810.47
2018-03-22T10:53:30.244Z,810.46
2018-03-22T10:54:30.253Z,810.47
2018-03-22T10:55:30.258Z,810.45
2018-03-22T10:56:30.263Z,810.45
2018-03-22T10:57:30.279Z,810.44
2018-03-22T10:58:30.285Z,810.45
2018-03-22T10:59:30.291Z,810.41
2018-03-22T11:00:30.294Z,810.44
2018-03-22T11:01:30.307Z,810.44
2018-03-22T11:02:30.316Z,810.40
2018-03-22T11:03:30.321Z,810.36
2018-03-22T11:04:30.323Z,810.38
2018-03-22T11:05:30.336Z,810.38
2018-03-22T11:06:30.345Z,810.34
2018-03-22T11:07:30.352Z,810.30
2018-03-22T11:08:30.359Z,810.33
2018-03-22T11:09:30.366Z,810.32
2018-03-22T11:10:30.374Z,810.27
2018-03-22T11:11:30.382Z,810.27
2018-03-22T11:12:30.384Z,810.23
2018-03-22T11:13:30.398Z,810.20
2018-03-22T11:14:30.408Z,810.19
2018-03-22T11:15:30.415Z,810.22
2018-03-22T11:16:30.419Z,810.26
2018-03-22T11:17:30.423Z,810.21
2018-03-22T11:18:30.431Z,810.19
2018-03-22T11:19:30.448Z,810.17
2018-03-22T11:20:30.447Z,810.13
2018-03-22T11:21:30.456Z,810.11
2018-03-22T11:22:30.475Z,810.17
2018-03-22T11:23:30.478Z,810.10
2018-03-22T11:24:30.486Z,810.15
2018-03-22T11:25:30.485Z,810.10
2018-03-22T11:26:30.502Z,810.13
2018-03-22T11:27:30.535Z,810.13
2018-03-22T11:28:30.516Z,810.15
2018-03-22T11:29:30.524Z,810.14
2018-03-22T11:30:30.534Z,810.14
2018-03-22T11:31:30.543Z,810.14
2018-03-22T11:32:30.544Z,810.16
2018-03-22T11:33:30.556Z,810.15
2018-03-22T11:34:30.565Z,810.15
2018-03-22T11:35:30.574Z,810.12
2018-03-22T11:36:30.581Z,810.09
2018-03-22T11:37:30.586Z,810.12
2018-03-22T11:38:30.597Z,810.04
2018-03-22T11:39:30.607Z,810.06
2018-03-22T11:40:30.615Z,810.10
2018-03-22T11:41:30.624Z,810.10
2018-03-22T11:42:30.626Z,810.07
2018-03-22T11:43:30.635Z,810.10
2018-03-22T11:44:30.649Z,810.11
2018-03-22T11:45:30.659Z,810.06
2018-03-22T11:46:30.661Z,810.00
2018-03-22T11:47:30.668Z,810.02
2018-03-22T11:48:30.679Z,809.97
2018-03-22T11:49:30.692Z,809.98
2018-03-22T11:50:30.702Z,810.00
2018-03-22T11:51:30.708Z,809.97
2018-03-22T11:52:30.713Z,809.95
2018-03-22T11:53:30.722Z,809.95
2018-03-22T11:54:30.732Z,809.97
2018-03-22T11:55:30.746Z,810.00
2018-03-22T11:56:30.783Z,809.94
2018-03-22T11:57:30.762Z,810.03
2018-03-22T11:58:30.773Z,810.07
2018-03-22T11:59:30.781Z,810.05
2018-03-22T12:00:30.789Z,810.00
2018-03-22T12:01:30.798Z,810.06
2018-03-22T12:02:30.803Z,810.03
2018-03-22T12:03:30.811Z,810.05
2018-03-22T12:04:30.821Z,810.07
2018-03-22T12:05:30.830Z,810.08
2018-03-22T12:06:30.847Z,810.14
2018-03-22T12:07:30.850Z,810.17
2018-03-22T12:08:30.864Z,810.16
2018-03-22T12:09:30.869Z,810.18
2018-03-22T12:10:30.885Z,810.18
2018-03-22T12:11:30.897Z,810.20
2018-03-22T12:12:30.965Z,810.22
2018-03-22T12:13:30.916Z,810.15
2018-03-22T12:14:30.924Z,810.14
2018-03-22T12:15:30.931Z,810.20
2018-03-22T12:16:30.948Z,810.18
2018-03-22T12:17:30.954Z,810.20
2018-03-22T12:18:30.965Z,810.18
2018-03-22T12:19:30.979Z,810.15
2018-03-22T12:20:30.990Z,810.16
2018-03-22T12:21:31.001Z,810.10
2018-03-22T12:22:31.009Z,810.02
2018-03-22T12:23:31.024Z,809.95
2018-03-22T12:24:31.089Z,809.93
2018-03-22T12:25:31.041Z,809.92
2018-03-22T12:26:31.053Z,809.89
2018-03-22T12:27:31.062Z,809.86
2018-03-22T12:28:31.081Z,809.82